Dundee, OR

2:00 AM PDT on October 23, 2014 (GMT -0700)
Dundee Hills | Change Station
CLOSE
Current Station
Personal Weather Station
Location: Dundee, OR
Elevation: 440 ft
Nearby Weather Stations
Active Advisory: Special Statement Active Notice: Record Report

Elev 440 ft 45.29 °N, 123.02 °W | Updated 5 seconds ago

Overcast
Overcast
52.6 °F
Feels Like 52.6 °F
N
0.0
Wind Variable Wind from NNE
Gusts 3.0 mph

Today
High -- | Low -- °F
--% Chance of Precip.
Yesterday
High -- | Low -- °F
Precip. -- in
7:38 AM 6:13 PM
Waning Crescent, 0% visible
Pressure 29.78 in
Visibility 10.0 miles
Clouds Mostly Cloudy 4600 ft
Mostly Cloudy 11000 ft
Dew Point 52 °F
Humidity 98%
Rainfall 0.00 in
Snow Depth Not available.
UV 0 out of 12
Pollen .30 out of 12
Air Quality Not available.
Flu Activity Sporadic
METAR KMMV 230853Z AUTO 10004KT 10SM BKN046 BKN110 12/11 A2978 RMK AO2 SLP084 60001 T01170106 50001

More Conditions Fewer Conditions

Pressure 29.78 in
Visibility 10.0 miles
Clouds Mostly Cloudy 4600 ft
Mostly Cloudy 11000 ft
Dew Point 52 °F
Humidity 98%
Rainfall 0.00 in
Snow Depth Not available.
UV 0 out of 12
Pollen .30 out of 12
Air Quality Not available.
Flu Activity Sporadic
METAR KMMV 230853Z AUTO 10004KT 10SM BKN046 BKN110 12/11 A2978 RMK AO2 SLP084 60001 T01170106 50001

More Conditions Fewer Conditions

10-Day Weather Forecast

Almanac

Astronomy

Oct. 23, 2014 Rise Set
Actual Time 7:38 AM PDT 6:13 PM PDT
Civil Twilight 7:08 AM PDT 6:43 PM PDT
Nautical Twilight 6:34 AM PDT 7:17 PM PDT
Astronomical Twilight 6:00 AM PDT 7:51 PM PDT
Moon 7:23 AM PDT 6:17 PM PDT
Length of Visible Light 11h 34m
Length of Day
10h 34m
Tomorrow will be 2m 59s shorter.
Waning Crescent, 0% of the Moon is Illuminated
Today
Waning Crescent
Oct 23
New
Oct 30
First Quarter
Nov 6
Full
Nov 14
Last Quarter

Today's Extremes

State Highs State Lows

Community

WunderPhotos

Upload Photos

1,764,198 photos uploaded!

Nearby

Snow Depth

Station Depth Elevation
Saddle Mountain 3 in 3250 ft
North Fork 0 in 3120 ft
Peavine Ridge 0 in 3500 ft
Clackamas Lake 0 in 3400 ft
Clear Lake 1 in 3500 ft

Earthquake Activity

City Distance Mag. Time & Date
No recent earthquake activity has been reported nearby.
Minimum magnitude displayed is 2.5.

Coastal Water Temperatures

Place Temperature
No Stations Reporting

Nearby Weather Stations